Аэропорт: Адлер. Сочи

ICAO: URSS

METAR:
2021-01-19 10:30:00
URSS 191030Z 09003MPS 9999 BKN040CB 03/M02 Q1020 R06/220360 R02/593028 TEMPO 0800 +SHSN BKN004 BKN020CB RMK MT OBSC QFE764 R02/07002MPS MT OBSC QFE764
METAR:
2021-01-19 07:56:00
TAF URSS 190756Z 1909/2009 28003G08MPS 9999 SCT011 BKN030CB BKN100 TEMPO 1909/1915 VRB07G12MPS 0800 +TSSN BKN004 BKN020CB OVC100 FM191500 05003G08MPS 3100 -SHSN BKN007 BKN020CB OVC100 TEMPO 1915/2008 VRB07G12MPS 0500 +TSSN BKN003 BKN020CB OVC100 FM200800 30004G09MPS 9999 SCT020CB BKN100